sensor_id;sensor_type;location;lat;lon;timestamp;P1;durP1;ratioP1;P2;durP2;ratioP2
4232;SDS011;2130;48.472;11.934;2022-08-25T00:00:16;71.37;;;6.13;;
4232;SDS011;2130;48.472;11.934;2022-08-25T00:02:47;71.40;;;6.03;;
4232;SDS011;2130;48.472;11.934;2022-08-25T00:05:25;72.23;;;6.10;;
4232;SDS011;2130;48.472;11.934;2022-08-25T00:07:57;70.53;;;5.30;;
4232;SDS011;2130;48.472;11.934;2022-08-25T00:10:26;70.23;;;5.33;;
4232;SDS011;2130;48.472;11.934;2022-08-25T00:12:54;71.83;;;5.37;;
4232;SDS011;2130;48.472;11.934;2022-08-25T00:15:22;71.30;;;5.57;;
4232;SDS011;2130;48.472;11.934;2022-08-25T00:17:52;73.90;;;5.90;;
4232;SDS011;2130;48.472;11.934;2022-08-25T00:20:20;70.70;;;5.47;;
4232;SDS011;2130;48.472;11.934;2022-08-25T00:22:48;71.10;;;5.40;;
4232;SDS011;2130;48.472;11.934;2022-08-25T00:25:17;70.07;;;5.37;;
4232;SDS011;2130;48.472;11.934;2022-08-25T00:27:45;72.00;;;6.00;;
4232;SDS011;2130;48.472;11.934;2022-08-25T00:30:14;70.07;;;5.67;;
4232;SDS011;2130;48.472;11.934;2022-08-25T00:32:43;71.13;;;5.37;;
4232;SDS011;2130;48.472;11.934;2022-08-25T00:35:25;70.57;;;5.27;;
4232;SDS011;2130;48.472;11.934;2022-08-25T00:37:53;71.03;;;5.73;;
4232;SDS011;2130;48.472;11.934;2022-08-25T00:40:22;78.00;;;6.37;;
4232;SDS011;2130;48.472;11.934;2022-08-25T00:42:52;70.10;;;6.00;;
4232;SDS011;2130;48.472;11.934;2022-08-25T00:45:21;73.13;;;6.50;;
4232;SDS011;2130;48.472;11.934;2022-08-25T00:47:50;71.10;;;6.97;;
4232;SDS011;2130;48.472;11.934;2022-08-25T00:50:18;70.57;;;6.40;;
4232;SDS011;2130;48.472;11.934;2022-08-25T00:52:48;73.67;;;6.00;;
4232;SDS011;2130;48.472;11.934;2022-08-25T00:55:18;70.57;;;5.97;;
4232;SDS011;2130;48.472;11.934;2022-08-25T00:57:49;70.60;;;5.57;;
4232;SDS011;2130;48.472;11.934;2022-08-25T01:00:21;70.37;;;5.10;;
4232;SDS011;2130;48.472;11.934;2022-08-25T01:02:51;70.43;;;6.07;;
4232;SDS011;2130;48.472;11.934;2022-08-25T01:05:19;70.30;;;5.50;;
4232;SDS011;2130;48.472;11.934;2022-08-25T01:07:48;72.17;;;6.10;;
4232;SDS011;2130;48.472;11.934;2022-08-25T01:10:23;70.07;;;5.67;;
4232;SDS011;2130;48.472;11.934;2022-08-25T01:12:54;71.47;;;6.30;;
4232;SDS011;2130;48.472;11.934;2022-08-25T01:15:25;74.73;;;6.70;;
4232;SDS011;2130;48.472;11.934;2022-08-25T01:17:54;70.30;;;6.30;;
4232;SDS011;2130;48.472;11.934;2022-08-25T01:20:26;72.37;;;6.40;;
4232;SDS011;2130;48.472;11.934;2022-08-25T01:22:57;72.53;;;6.50;;
4232;SDS011;2130;48.472;11.934;2022-08-25T01:25:29;71.10;;;6.23;;
4232;SDS011;2130;48.472;11.934;2022-08-25T01:28:02;72.90;;;7.00;;
4232;SDS011;2130;48.472;11.934;2022-08-25T01:30:31;72.07;;;6.40;;
4232;SDS011;2130;48.472;11.934;2022-08-25T01:33:01;71.70;;;5.90;;
4232;SDS011;2130;48.472;11.934;2022-08-25T01:35:30;71.90;;;6.83;;
4232;SDS011;2130;48.472;11.934;2022-08-25T01:37:59;71.33;;;6.60;;
4232;SDS011;2130;48.472;11.934;2022-08-25T01:40:28;74.03;;;6.63;;
4232;SDS011;2130;48.472;11.934;2022-08-25T01:42:57;71.47;;;6.70;;
4232;SDS011;2130;48.472;11.934;2022-08-25T01:45:30;71.70;;;6.77;;
4232;SDS011;2130;48.472;11.934;2022-08-25T01:47:58;72.27;;;6.80;;
4232;SDS011;2130;48.472;11.934;2022-08-25T01:50:26;73.37;;;7.00;;
4232;SDS011;2130;48.472;11.934;2022-08-25T01:53:05;72.07;;;6.60;;
4232;SDS011;2130;48.472;11.934;2022-08-25T01:55:40;72.50;;;7.40;;
4232;SDS011;2130;48.472;11.934;2022-08-25T01:58:20;73.17;;;7.00;;
4232;SDS011;2130;48.472;11.934;2022-08-25T02:00:50;73.37;;;7.37;;
4232;SDS011;2130;48.472;11.934;2022-08-25T02:03:20;73.57;;;7.07;;
4232;SDS011;2130;48.472;11.934;2022-08-25T02:05:50;73.37;;;7.67;;
4232;SDS011;2130;48.472;11.934;2022-08-25T02:08:20;73.10;;;7.30;;
4232;SDS011;2130;48.472;11.934;2022-08-25T02:10:50;73.87;;;7.60;;
4232;SDS011;2130;48.472;11.934;2022-08-25T02:13:18;71.20;;;6.70;;
4232;SDS011;2130;48.472;11.934;2022-08-25T02:15:52;71.47;;;6.80;;
4232;SDS011;2130;48.472;11.934;2022-08-25T02:18:22;72.07;;;6.80;;
4232;SDS011;2130;48.472;11.934;2022-08-25T02:20:50;72.77;;;7.20;;
4232;SDS011;2130;48.472;11.934;2022-08-25T02:23:19;77.23;;;7.97;;
4232;SDS011;2130;48.472;11.934;2022-08-25T02:25:47;73.73;;;7.90;;
4232;SDS011;2130;48.472;11.934;2022-08-25T02:28:16;71.17;;;6.67;;
4232;SDS011;2130;48.472;11.934;2022-08-25T02:30:44;74.60;;;7.67;;
4232;SDS011;2130;48.472;11.934;2022-08-25T02:33:13;72.30;;;7.30;;
4232;SDS011;2130;48.472;11.934;2022-08-25T02:35:41;75.73;;;7.57;;
4232;SDS011;2130;48.472;11.934;2022-08-25T02:38:10;73.90;;;7.63;;
4232;SDS011;2130;48.472;11.934;2022-08-25T02:40:40;74.33;;;7.57;;
4232;SDS011;2130;48.472;11.934;2022-08-25T02:43:08;75.87;;;7.33;;
4232;SDS011;2130;48.472;11.934;2022-08-25T02:45:36;75.37;;;8.40;;
4232;SDS011;2130;48.472;11.934;2022-08-25T02:48:04;74.27;;;7.63;;
4232;SDS011;2130;48.472;11.934;2022-08-25T02:50:33;73.60;;;7.10;;
4232;SDS011;2130;48.472;11.934;2022-08-25T02:53:01;73.93;;;7.80;;
4232;SDS011;2130;48.472;11.934;2022-08-25T02:55:29;74.30;;;7.60;;
4232;SDS011;2130;48.472;11.934;2022-08-25T02:58:01;77.07;;;7.30;;
4232;SDS011;2130;48.472;11.934;2022-08-25T03:00:29;73.17;;;7.07;;
4232;SDS011;2130;48.472;11.934;2022-08-25T03:02:59;74.90;;;7.80;;
4232;SDS011;2130;48.472;11.934;2022-08-25T03:05:27;74.10;;;7.47;;
4232;SDS011;2130;48.472;11.934;2022-08-25T03:07:55;73.20;;;7.30;;
4232;SDS011;2130;48.472;11.934;2022-08-25T03:10:24;74.67;;;8.00;;
4232;SDS011;2130;48.472;11.934;2022-08-25T03:12:52;72.60;;;7.17;;
4232;SDS011;2130;48.472;11.934;2022-08-25T03:15:22;75.87;;;8.60;;
4232;SDS011;2130;48.472;11.934;2022-08-25T03:17:51;74.63;;;7.87;;
4232;SDS011;2130;48.472;11.934;2022-08-25T03:20:19;74.30;;;7.50;;
4232;SDS011;2130;48.472;11.934;2022-08-25T03:22:48;74.27;;;8.23;;
4232;SDS011;2130;48.472;11.934;2022-08-25T03:25:17;79.53;;;10.23;;
4232;SDS011;2130;48.472;11.934;2022-08-25T03:28:03;72.10;;;6.77;;
4232;SDS011;2130;48.472;11.934;2022-08-25T03:30:33;73.93;;;7.50;;
4232;SDS011;2130;48.472;11.934;2022-08-25T03:33:01;75.60;;;8.13;;
4232;SDS011;2130;48.472;11.934;2022-08-25T03:35:29;75.17;;;8.20;;
4232;SDS011;2130;48.472;11.934;2022-08-25T03:37:59;76.23;;;8.50;;
4232;SDS011;2130;48.472;11.934;2022-08-25T03:40:27;73.87;;;7.73;;
4232;SDS011;2130;48.472;11.934;2022-08-25T03:42:56;74.70;;;8.00;;
4232;SDS011;2130;48.472;11.934;2022-08-25T03:45:24;76.07;;;8.27;;
4232;SDS011;2130;48.472;11.934;2022-08-25T03:47:53;76.77;;;8.33;;
4232;SDS011;2130;48.472;11.934;2022-08-25T03:50:22;74.30;;;7.83;;
4232;SDS011;2130;48.472;11.934;2022-08-25T03:52:51;75.03;;;8.60;;
4232;SDS011;2130;48.472;11.934;2022-08-25T03:55:20;74.97;;;8.37;;
4232;SDS011;2130;48.472;11.934;2022-08-25T03:57:50;75.10;;;7.90;;
4232;SDS011;2130;48.472;11.934;2022-08-25T04:00:19;74.77;;;8.10;;
4232;SDS011;2130;48.472;11.934;2022-08-25T04:02:48;76.67;;;8.50;;
4232;SDS011;2130;48.472;11.934;2022-08-25T04:05:17;77.00;;;9.00;;
4232;SDS011;2130;48.472;11.934;2022-08-25T04:07:46;76.40;;;8.27;;
4232;SDS011;2130;48.472;11.934;2022-08-25T04:10:14;73.77;;;7.67;;
4232;SDS011;2130;48.472;11.934;2022-08-25T04:12:42;75.37;;;8.00;;
4232;SDS011;2130;48.472;11.934;2022-08-25T04:15:10;74.03;;;7.93;;
4232;SDS011;2130;48.472;11.934;2022-08-25T04:17:39;80.07;;;8.57;;
4232;SDS011;2130;48.472;11.934;2022-08-25T04:20:08;77.63;;;8.40;;
4232;SDS011;2130;48.472;11.934;2022-08-25T04:22:41;75.70;;;8.67;;
4232;SDS011;2130;48.472;11.934;2022-08-25T04:25:11;74.60;;;8.00;;
4232;SDS011;2130;48.472;11.934;2022-08-25T04:27:39;76.17;;;8.23;;
4232;SDS011;2130;48.472;11.934;2022-08-25T04:30:08;76.87;;;8.63;;
4232;SDS011;2130;48.472;11.934;2022-08-25T04:32:37;73.50;;;8.30;;
4232;SDS011;2130;48.472;11.934;2022-08-25T04:35:05;75.50;;;8.50;;
4232;SDS011;2130;48.472;11.934;2022-08-25T04:37:34;76.07;;;8.57;;
4232;SDS011;2130;48.472;11.934;2022-08-25T04:40:04;77.10;;;8.13;;
4232;SDS011;2130;48.472;11.934;2022-08-25T04:42:32;74.00;;;7.83;;
4232;SDS011;2130;48.472;11.934;2022-08-25T04:45:01;77.30;;;8.50;;
4232;SDS011;2130;48.472;11.934;2022-08-25T04:47:29;74.47;;;7.97;;
4232;SDS011;2130;48.472;11.934;2022-08-25T04:49:58;75.37;;;8.50;;
4232;SDS011;2130;48.472;11.934;2022-08-25T04:52:26;74.00;;;8.13;;
4232;SDS011;2130;48.472;11.934;2022-08-25T04:54:54;77.23;;;8.20;;
4232;SDS011;2130;48.472;11.934;2022-08-25T04:57:23;73.70;;;8.07;;
4232;SDS011;2130;48.472;11.934;2022-08-25T04:59:51;76.77;;;8.10;;
4232;SDS011;2130;48.472;11.934;2022-08-25T05:02:19;76.83;;;8.97;;
4232;SDS011;2130;48.472;11.934;2022-08-25T05:04:48;75.80;;;8.53;;
4232;SDS011;2130;48.472;11.934;2022-08-25T05:07:16;76.50;;;9.17;;
4232;SDS011;2130;48.472;11.934;2022-08-25T05:09:44;75.70;;;8.20;;
4232;SDS011;2130;48.472;11.934;2022-08-25T05:12:12;77.00;;;8.83;;
4232;SDS011;2130;48.472;11.934;2022-08-25T05:14:42;76.27;;;9.43;;
4232;SDS011;2130;48.472;11.934;2022-08-25T05:17:10;76.87;;;9.00;;
4232;SDS011;2130;48.472;11.934;2022-08-25T05:19:38;77.43;;;9.23;;
4232;SDS011;2130;48.472;11.934;2022-08-25T05:22:06;80.37;;;10.07;;
4232;SDS011;2130;48.472;11.934;2022-08-25T05:24:34;79.97;;;10.07;;
4232;SDS011;2130;48.472;11.934;2022-08-25T05:27:02;79.30;;;9.87;;
4232;SDS011;2130;48.472;11.934;2022-08-25T05:29:31;77.50;;;10.10;;
4232;SDS011;2130;48.472;11.934;2022-08-25T05:32:00;79.63;;;9.67;;
4232;SDS011;2130;48.472;11.934;2022-08-25T05:34:34;76.60;;;9.23;;
4232;SDS011;2130;48.472;11.934;2022-08-25T05:37:02;78.23;;;9.20;;
4232;SDS011;2130;48.472;11.934;2022-08-25T05:39:35;78.00;;;10.10;;
4232;SDS011;2130;48.472;11.934;2022-08-25T05:42:04;76.97;;;10.00;;
4232;SDS011;2130;48.472;11.934;2022-08-25T05:44:32;79.30;;;9.03;;
4232;SDS011;2130;48.472;11.934;2022-08-25T05:47:01;83.80;;;9.73;;
4232;SDS011;2130;48.472;11.934;2022-08-25T05:49:29;76.67;;;9.80;;
4232;SDS011;2130;48.472;11.934;2022-08-25T05:51:57;76.20;;;8.97;;
4232;SDS011;2130;48.472;11.934;2022-08-25T05:57:18;75.40;;;8.80;;
4232;SDS011;2130;48.472;11.934;2022-08-25T05:59:46;77.30;;;9.43;;
4232;SDS011;2130;48.472;11.934;2022-08-25T06:02:16;78.40;;;9.57;;
4232;SDS011;2130;48.472;11.934;2022-08-25T06:05:02;76.37;;;9.50;;
4232;SDS011;2130;48.472;11.934;2022-08-25T06:07:31;79.20;;;9.50;;
4232;SDS011;2130;48.472;11.934;2022-08-25T06:09:59;78.60;;;10.13;;
4232;SDS011;2130;48.472;11.934;2022-08-25T06:12:27;83.00;;;9.97;;
4232;SDS011;2130;48.472;11.934;2022-08-25T06:14:56;77.93;;;9.67;;
4232;SDS011;2130;48.472;11.934;2022-08-25T06:17:26;80.10;;;8.77;;
4232;SDS011;2130;48.472;11.934;2022-08-25T06:19:54;78.43;;;9.50;;
4232;SDS011;2130;48.472;11.934;2022-08-25T06:22:22;77.03;;;9.70;;
4232;SDS011;2130;48.472;11.934;2022-08-25T06:24:51;78.30;;;9.77;;
4232;SDS011;2130;48.472;11.934;2022-08-25T06:27:20;76.07;;;8.77;;
4232;SDS011;2130;48.472;11.934;2022-08-25T06:29:48;76.17;;;8.77;;
4232;SDS011;2130;48.472;11.934;2022-08-25T06:32:21;76.30;;;9.93;;
4232;SDS011;2130;48.472;11.934;2022-08-25T06:34:50;77.03;;;10.20;;
4232;SDS011;2130;48.472;11.934;2022-08-25T06:37:19;77.53;;;9.57;;
4232;SDS011;2130;48.472;11.934;2022-08-25T06:39:50;77.27;;;10.87;;
4232;SDS011;2130;48.472;11.934;2022-08-25T06:42:19;76.70;;;10.20;;
4232;SDS011;2130;48.472;11.934;2022-08-25T06:44:47;76.50;;;10.40;;
4232;SDS011;2130;48.472;11.934;2022-08-25T06:47:15;77.47;;;9.73;;
4232;SDS011;2130;48.472;11.934;2022-08-25T06:49:44;77.90;;;11.00;;
4232;SDS011;2130;48.472;11.934;2022-08-25T06:52:13;77.47;;;9.63;;
4232;SDS011;2130;48.472;11.934;2022-08-25T06:54:42;77.97;;;10.63;;
4232;SDS011;2130;48.472;11.934;2022-08-25T06:57:14;80.93;;;10.57;;
4232;SDS011;2130;48.472;11.934;2022-08-25T06:59:42;78.17;;;10.13;;
4232;SDS011;2130;48.472;11.934;2022-08-25T07:02:10;78.20;;;10.47;;
4232;SDS011;2130;48.472;11.934;2022-08-25T07:04:41;78.63;;;10.70;;
4232;SDS011;2130;48.472;11.934;2022-08-25T07:07:09;91.38;;;17.58;;
4232;SDS011;2130;48.472;11.934;2022-08-25T07:09:38;80.77;;;12.73;;
4232;SDS011;2130;48.472;11.934;2022-08-25T07:12:07;84.20;;;11.10;;
4232;SDS011;2130;48.472;11.934;2022-08-25T07:14:35;81.80;;;12.90;;
4232;SDS011;2130;48.472;11.934;2022-08-25T07:17:03;81.07;;;11.37;;
4232;SDS011;2130;48.472;11.934;2022-08-25T07:19:38;81.20;;;11.23;;
4232;SDS011;2130;48.472;11.934;2022-08-25T07:22:06;81.60;;;12.27;;
4232;SDS011;2130;48.472;11.934;2022-08-25T07:24:36;78.50;;;10.83;;
4232;SDS011;2130;48.472;11.934;2022-08-25T07:27:05;82.50;;;12.10;;
4232;SDS011;2130;48.472;11.934;2022-08-25T07:29:33;80.47;;;12.60;;
4232;SDS011;2130;48.472;11.934;2022-08-25T07:32:08;80.10;;;11.43;;
4232;SDS011;2130;48.472;11.934;2022-08-25T07:34:36;79.67;;;11.47;;
4232;SDS011;2130;48.472;11.934;2022-08-25T07:37:22;78.87;;;11.23;;
4232;SDS011;2130;48.472;11.934;2022-08-25T07:40:13;77.30;;;10.73;;
4232;SDS011;2130;48.472;11.934;2022-08-25T07:42:45;81.20;;;11.77;;
4232;SDS011;2130;48.472;11.934;2022-08-25T07:45:13;79.63;;;12.03;;
4232;SDS011;2130;48.472;11.934;2022-08-25T07:47:47;81.30;;;11.07;;
4232;SDS011;2130;48.472;11.934;2022-08-25T07:50:17;78.97;;;11.47;;
4232;SDS011;2130;48.472;11.934;2022-08-25T07:52:45;85.53;;;12.60;;
4232;SDS011;2130;48.472;11.934;2022-08-25T07:55:20;79.10;;;11.70;;
4232;SDS011;2130;48.472;11.934;2022-08-25T07:57:50;79.27;;;10.90;;
4232;SDS011;2130;48.472;11.934;2022-08-25T08:00:23;80.53;;;10.87;;
4232;SDS011;2130;48.472;11.934;2022-08-25T08:02:53;80.50;;;11.07;;
4232;SDS011;2130;48.472;11.934;2022-08-25T08:05:22;80.07;;;10.47;;
4232;SDS011;2130;48.472;11.934;2022-08-25T08:07:52;81.50;;;11.13;;
4232;SDS011;2130;48.472;11.934;2022-08-25T08:10:21;78.90;;;10.37;;
4232;SDS011;2130;48.472;11.934;2022-08-25T08:13:12;76.20;;;9.50;;
4232;SDS011;2130;48.472;11.934;2022-08-25T08:15:44;80.80;;;11.20;;
4232;SDS011;2130;48.472;11.934;2022-08-25T08:18:13;79.27;;;10.40;;
4232;SDS011;2130;48.472;11.934;2022-08-25T08:20:42;77.37;;;9.07;;
4232;SDS011;2130;48.472;11.934;2022-08-25T08:23:11;82.17;;;10.43;;
4232;SDS011;2130;48.472;11.934;2022-08-25T08:25:39;78.10;;;9.50;;
4232;SDS011;2130;48.472;11.934;2022-08-25T08:28:07;76.17;;;9.37;;
4232;SDS011;2130;48.472;11.934;2022-08-25T08:30:37;82.27;;;9.67;;
4232;SDS011;2130;48.472;11.934;2022-08-25T08:33:20;77.97;;;9.80;;
4232;SDS011;2130;48.472;11.934;2022-08-25T08:35:54;87.47;;;13.27;;
4232;SDS011;2130;48.472;11.934;2022-08-25T08:38:24;77.10;;;8.90;;
4232;SDS011;2130;48.472;11.934;2022-08-25T08:40:55;79.80;;;9.27;;
4232;SDS011;2130;48.472;11.934;2022-08-25T08:43:49;78.00;;;9.40;;
4232;SDS011;2130;48.472;11.934;2022-08-25T08:46:24;78.77;;;9.10;;
4232;SDS011;2130;48.472;11.934;2022-08-25T08:48:59;80.23;;;9.80;;
4232;SDS011;2130;48.472;11.934;2022-08-25T08:51:29;78.00;;;9.47;;
4232;SDS011;2130;48.472;11.934;2022-08-25T08:54:00;77.87;;;8.30;;
4232;SDS011;2130;48.472;11.934;2022-08-25T08:56:41;77.23;;;8.97;;
4232;SDS011;2130;48.472;11.934;2022-08-25T08:59:15;77.87;;;9.37;;
4232;SDS011;2130;48.472;11.934;2022-08-25T09:01:47;78.47;;;9.13;;
4232;SDS011;2130;48.472;11.934;2022-08-25T09:04:21;77.67;;;8.70;;
4232;SDS011;2130;48.472;11.934;2022-08-25T09:06:53;77.57;;;8.40;;
4232;SDS011;2130;48.472;11.934;2022-08-25T09:09:24;77.97;;;8.77;;
4232;SDS011;2130;48.472;11.934;2022-08-25T09:11:57;76.30;;;9.47;;
4232;SDS011;2130;48.472;11.934;2022-08-25T09:14:34;76.70;;;9.40;;
4232;SDS011;2130;48.472;11.934;2022-08-25T09:17:10;79.57;;;9.67;;
4232;SDS011;2130;48.472;11.934;2022-08-25T09:19:49;77.30;;;8.73;;
4232;SDS011;2130;48.472;11.934;2022-08-25T09:22:33;77.70;;;8.93;;
4232;SDS011;2130;48.472;11.934;2022-08-25T09:25:10;83.70;;;8.83;;
4232;SDS011;2130;48.472;11.934;2022-08-25T09:27:59;78.37;;;9.20;;
4232;SDS011;2130;48.472;11.934;2022-08-25T09:30:38;76.10;;;7.73;;
4232;SDS011;2130;48.472;11.934;2022-08-25T09:33:10;78.07;;;9.00;;
4232;SDS011;2130;48.472;11.934;2022-08-25T09:35:46;76.43;;;8.10;;
4232;SDS011;2130;48.472;11.934;2022-08-25T09:38:19;81.17;;;9.33;;
4232;SDS011;2130;48.472;11.934;2022-08-25T09:40:48;77.00;;;7.90;;
4232;SDS011;2130;48.472;11.934;2022-08-25T09:43:18;85.40;;;9.50;;
4232;SDS011;2130;48.472;11.934;2022-08-25T09:45:49;78.23;;;8.50;;
4232;SDS011;2130;48.472;11.934;2022-08-25T09:48:27;78.70;;;8.37;;
4232;SDS011;2130;48.472;11.934;2022-08-25T09:51:11;77.33;;;8.40;;
4232;SDS011;2130;48.472;11.934;2022-08-25T09:53:47;78.70;;;8.60;;
4232;SDS011;2130;48.472;11.934;2022-08-25T09:56:18;76.47;;;8.50;;
4232;SDS011;2130;48.472;11.934;2022-08-25T09:58:48;80.47;;;9.07;;
4232;SDS011;2130;48.472;11.934;2022-08-25T10:01:17;87.32;;;8.85;;
4232;SDS011;2130;48.472;11.934;2022-08-25T10:03:53;80.53;;;8.37;;
4232;SDS011;2130;48.472;11.934;2022-08-25T10:06:23;78.07;;;8.03;;
4232;SDS011;2130;48.472;11.934;2022-08-25T10:08:55;79.67;;;8.27;;
4232;SDS011;2130;48.472;11.934;2022-08-25T10:11:30;76.97;;;8.10;;
4232;SDS011;2130;48.472;11.934;2022-08-25T10:14:01;77.27;;;6.97;;
4232;SDS011;2130;48.472;11.934;2022-08-25T10:16:33;76.20;;;8.03;;
4232;SDS011;2130;48.472;11.934;2022-08-25T10:19:05;80.00;;;8.60;;
4232;SDS011;2130;48.472;11.934;2022-08-25T10:21:36;80.23;;;8.27;;
4232;SDS011;2130;48.472;11.934;2022-08-25T10:24:06;82.63;;;7.97;;
4232;SDS011;2130;48.472;11.934;2022-08-25T10:26:44;78.07;;;7.30;;
4232;SDS011;2130;48.472;11.934;2022-08-25T10:29:25;77.50;;;7.47;;
4232;SDS011;2130;48.472;11.934;2022-08-25T10:32:00;78.37;;;7.70;;
4232;SDS011;2130;48.472;11.934;2022-08-25T10:34:42;79.10;;;8.07;;
4232;SDS011;2130;48.472;11.934;2022-08-25T10:37:20;78.57;;;7.77;;
4232;SDS011;2130;48.472;11.934;2022-08-25T10:40:01;75.90;;;7.43;;
4232;SDS011;2130;48.472;11.934;2022-08-25T10:42:38;78.60;;;7.93;;
4232;SDS011;2130;48.472;11.934;2022-08-25T10:45:12;78.60;;;8.53;;
4232;SDS011;2130;48.472;11.934;2022-08-25T10:48:16;80.93;;;7.73;;
4232;SDS011;2130;48.472;11.934;2022-08-25T10:50:52;83.33;;;7.57;;
4232;SDS011;2130;48.472;11.934;2022-08-25T10:53:25;74.70;;;6.50;;
4232;SDS011;2130;48.472;11.934;2022-08-25T10:55:59;76.17;;;7.47;;
4232;SDS011;2130;48.472;11.934;2022-08-25T10:58:44;77.90;;;7.47;;
4232;SDS011;2130;48.472;11.934;2022-08-25T11:01:24;79.60;;;7.47;;
4232;SDS011;2130;48.472;11.934;2022-08-25T11:04:09;78.90;;;7.60;;
4232;SDS011;2130;48.472;11.934;2022-08-25T11:06:42;76.37;;;7.37;;
4232;SDS011;2130;48.472;11.934;2022-08-25T11:09:19;76.77;;;7.17;;
4232;SDS011;2130;48.472;11.934;2022-08-25T11:11:50;78.10;;;7.30;;
4232;SDS011;2130;48.472;11.934;2022-08-25T11:14:22;77.97;;;7.40;;
4232;SDS011;2130;48.472;11.934;2022-08-25T11:17:00;81.87;;;8.27;;
4232;SDS011;2130;48.472;11.934;2022-08-25T11:19:32;79.00;;;7.50;;
4232;SDS011;2130;48.472;11.934;2022-08-25T11:22:06;77.13;;;7.63;;
4232;SDS011;2130;48.472;11.934;2022-08-25T11:24:50;79.90;;;7.60;;
4232;SDS011;2130;48.472;11.934;2022-08-25T11:27:24;76.57;;;7.37;;
4232;SDS011;2130;48.472;11.934;2022-08-25T11:29:58;82.83;;;7.40;;
4232;SDS011;2130;48.472;11.934;2022-08-25T11:32:32;81.00;;;7.60;;
4232;SDS011;2130;48.472;11.934;2022-08-25T11:35:02;77.27;;;7.30;;
4232;SDS011;2130;48.472;11.934;2022-08-25T11:37:34;79.23;;;8.40;;
4232;SDS011;2130;48.472;11.934;2022-08-25T11:43:00;89.47;;;7.40;;
4232;SDS011;2130;48.472;11.934;2022-08-25T11:45:48;74.80;;;8.00;;
4232;SDS011;2130;48.472;11.934;2022-08-25T11:48:24;79.13;;;7.30;;
4232;SDS011;2130;48.472;11.934;2022-08-25T11:50:58;86.27;;;9.10;;
4232;SDS011;2130;48.472;11.934;2022-08-25T11:53:30;80.63;;;7.73;;
4232;SDS011;2130;48.472;11.934;2022-08-25T11:56:00;81.27;;;7.80;;
4232;SDS011;2130;48.472;11.934;2022-08-25T11:58:41;89.27;;;9.00;;
4232;SDS011;2130;48.472;11.934;2022-08-25T12:04:13;77.07;;;7.40;;
4232;SDS011;2130;48.472;11.934;2022-08-25T12:12:57;81.03;;;7.90;;
4232;SDS011;2130;48.472;11.934;2022-08-25T12:18:43;79.20;;;8.43;;
4232;SDS011;2130;48.472;11.934;2022-08-25T12:21:29;79.83;;;7.30;;
4232;SDS011;2130;48.472;11.934;2022-08-25T12:24:12;78.70;;;7.73;;
4232;SDS011;2130;48.472;11.934;2022-08-25T12:26:47;81.63;;;8.47;;
4232;SDS011;2130;48.472;11.934;2022-08-25T12:29:23;75.60;;;6.47;;
4232;SDS011;2130;48.472;11.934;2022-08-25T12:32:03;80.50;;;6.80;;
4232;SDS011;2130;48.472;11.934;2022-08-25T12:35:07;77.30;;;7.37;;
4232;SDS011;2130;48.472;11.934;2022-08-25T12:37:52;78.07;;;6.87;;
4232;SDS011;2130;48.472;11.934;2022-08-25T12:40:24;78.83;;;7.20;;
4232;SDS011;2130;48.472;11.934;2022-08-25T12:43:03;81.73;;;6.80;;
4232;SDS011;2130;48.472;11.934;2022-08-25T12:45:43;74.63;;;6.80;;
4232;SDS011;2130;48.472;11.934;2022-08-25T12:51:14;82.73;;;6.83;;
4232;SDS011;2130;48.472;11.934;2022-08-25T12:53:46;78.90;;;7.10;;
4232;SDS011;2130;48.472;11.934;2022-08-25T12:56:18;84.03;;;7.50;;
4232;SDS011;2130;48.472;11.934;2022-08-25T12:59:00;78.40;;;6.37;;
4232;SDS011;2130;48.472;11.934;2022-08-25T13:01:55;81.60;;;6.40;;
4232;SDS011;2130;48.472;11.934;2022-08-25T13:08:05;77.07;;;6.40;;
4232;SDS011;2130;48.472;11.934;2022-08-25T13:10:52;81.53;;;7.20;;
4232;SDS011;2130;48.472;11.934;2022-08-25T13:13:23;80.23;;;6.80;;
4232;SDS011;2130;48.472;11.934;2022-08-25T13:16:17;84.30;;;7.03;;
4232;SDS011;2130;48.472;11.934;2022-08-25T13:18:52;77.47;;;7.53;;
4232;SDS011;2130;48.472;11.934;2022-08-25T13:21:27;85.97;;;6.77;;
4232;SDS011;2130;48.472;11.934;2022-08-25T13:23:57;79.73;;;7.30;;
4232;SDS011;2130;48.472;11.934;2022-08-25T13:26:32;77.80;;;6.83;;
4232;SDS011;2130;48.472;11.934;2022-08-25T13:29:11;75.10;;;6.37;;
4232;SDS011;2130;48.472;11.934;2022-08-25T13:31:51;74.80;;;6.60;;
4232;SDS011;2130;48.472;11.934;2022-08-25T13:34:23;81.83;;;7.60;;
4232;SDS011;2130;48.472;11.934;2022-08-25T13:37:03;76.30;;;5.97;;
4232;SDS011;2130;48.472;11.934;2022-08-25T13:39:50;78.83;;;7.63;;
4232;SDS011;2130;48.472;11.934;2022-08-25T13:42:24;77.13;;;6.60;;
4232;SDS011;2130;48.472;11.934;2022-08-25T13:44:54;80.50;;;6.60;;
4232;SDS011;2130;48.472;11.934;2022-08-25T13:47:35;76.03;;;6.50;;
4232;SDS011;2130;48.472;11.934;2022-08-25T13:50:15;78.20;;;6.53;;
4232;SDS011;2130;48.472;11.934;2022-08-25T13:52:46;81.57;;;6.60;;
4232;SDS011;2130;48.472;11.934;2022-08-25T13:55:19;83.33;;;7.00;;
4232;SDS011;2130;48.472;11.934;2022-08-25T13:57:53;80.63;;;7.20;;
4232;SDS011;2130;48.472;11.934;2022-08-25T14:00:26;83.00;;;7.67;;
4232;SDS011;2130;48.472;11.934;2022-08-25T14:02:59;75.87;;;6.33;;
4232;SDS011;2130;48.472;11.934;2022-08-25T14:05:39;74.00;;;6.20;;
4232;SDS011;2130;48.472;11.934;2022-08-25T14:08:25;75.00;;;6.47;;
4232;SDS011;2130;48.472;11.934;2022-08-25T14:11:01;71.30;;;5.80;;
4232;SDS011;2130;48.472;11.934;2022-08-25T14:13:42;73.37;;;6.10;;
4232;SDS011;2130;48.472;11.934;2022-08-25T14:16:12;75.33;;;6.43;;
4232;SDS011;2130;48.472;11.934;2022-08-25T14:18:48;80.43;;;6.17;;
4232;SDS011;2130;48.472;11.934;2022-08-25T14:21:18;76.10;;;6.57;;
4232;SDS011;2130;48.472;11.934;2022-08-25T14:23:49;73.50;;;6.47;;
4232;SDS011;2130;48.472;11.934;2022-08-25T14:26:19;100.63;;;7.20;;
4232;SDS011;2130;48.472;11.934;2022-08-25T14:28:47;89.97;;;6.10;;
4232;SDS011;2130;48.472;11.934;2022-08-25T14:31:17;91.97;;;8.83;;
4232;SDS011;2130;48.472;11.934;2022-08-25T14:33:53;82.87;;;9.13;;
4232;SDS011;2130;48.472;11.934;2022-08-25T14:36:23;89.55;;;10.40;;
4232;SDS011;2130;48.472;11.934;2022-08-25T14:38:51;97.63;;;7.37;;
4232;SDS011;2130;48.472;11.934;2022-08-25T14:41:20;93.40;;;6.00;;
4232;SDS011;2130;48.472;11.934;2022-08-25T14:43:50;82.57;;;6.30;;
4232;SDS011;2130;48.472;11.934;2022-08-25T14:46:19;74.17;;;5.00;;
4232;SDS011;2130;48.472;11.934;2022-08-25T14:48:49;73.13;;;4.83;;
4232;SDS011;2130;48.472;11.934;2022-08-25T14:51:22;78.13;;;5.40;;
4232;SDS011;2130;48.472;11.934;2022-08-25T14:53:52;71.60;;;5.30;;
4232;SDS011;2130;48.472;11.934;2022-08-25T14:56:22;76.40;;;5.33;;
4232;SDS011;2130;48.472;11.934;2022-08-25T14:58:54;73.80;;;5.37;;
4232;SDS011;2130;48.472;11.934;2022-08-25T15:01:25;82.50;;;6.20;;
4232;SDS011;2130;48.472;11.934;2022-08-25T15:03:57;80.13;;;5.23;;
4232;SDS011;2130;48.472;11.934;2022-08-25T15:06:30;80.03;;;6.03;;
4232;SDS011;2130;48.472;11.934;2022-08-25T15:08:58;73.30;;;5.10;;
4232;SDS011;2130;48.472;11.934;2022-08-25T15:11:38;82.90;;;5.10;;
4232;SDS011;2130;48.472;11.934;2022-08-25T15:14:08;76.83;;;5.97;;
4232;SDS011;2130;48.472;11.934;2022-08-25T15:16:38;76.07;;;5.77;;
4232;SDS011;2130;48.472;11.934;2022-08-25T15:19:09;79.60;;;6.17;;
4232;SDS011;2130;48.472;11.934;2022-08-25T15:21:42;72.70;;;5.30;;
4232;SDS011;2130;48.472;11.934;2022-08-25T15:24:12;77.30;;;5.10;;
4232;SDS011;2130;48.472;11.934;2022-08-25T15:26:44;73.20;;;5.37;;
4232;SDS011;2130;48.472;11.934;2022-08-25T15:29:18;72.23;;;4.93;;
4232;SDS011;2130;48.472;11.934;2022-08-25T15:31:48;74.00;;;4.90;;
4232;SDS011;2130;48.472;11.934;2022-08-25T15:34:16;73.30;;;5.60;;
4232;SDS011;2130;48.472;11.934;2022-08-25T15:36:46;74.50;;;5.50;;
4232;SDS011;2130;48.472;11.934;2022-08-25T15:39:14;77.97;;;5.43;;